createdAt,value
2022-10-08T00:12:55.413Z,100
2022-10-08T00:27:26.519Z,98.6
2022-10-08T00:41:58.681Z,100
2022-10-08T00:56:29.988Z,100
2022-10-08T01:10:59.665Z,99.4
2022-10-08T01:25:31.793Z,100
2022-10-08T01:40:04.774Z,100
2022-10-08T01:54:37.004Z,95.8
2022-10-08T02:09:09.658Z,98.9
2022-10-08T02:23:42.022Z,99.6
2022-10-08T02:38:15.089Z,100
2022-10-08T02:52:46.359Z,100
2022-10-08T03:07:17.580Z,100
2022-10-08T03:21:48.109Z,100
2022-10-08T03:36:21.630Z,100
2022-10-08T03:50:55.232Z,100
2022-10-08T04:05:27.065Z,100
2022-10-08T04:34:36.588Z,100
2022-10-08T04:49:10.370Z,100
2022-10-08T05:03:39.762Z,100
2022-10-08T05:18:12.583Z,100
2022-10-08T05:32:45.785Z,100
2022-10-08T05:47:17.257Z,100
2022-10-08T06:01:50.014Z,100
2022-10-08T06:16:21.307Z,100
2022-10-08T06:30:54.114Z,100
2022-10-08T06:45:26.566Z,100
2022-10-08T06:59:59.357Z,100
2022-10-08T07:14:33.191Z,100
2022-10-08T07:29:06.686Z,100
2022-10-08T07:43:40.270Z,100
2022-10-08T07:58:13.588Z,100
2022-10-08T08:12:45.887Z,100
2022-10-08T08:27:14.725Z,100
2022-10-08T08:41:47.812Z,100
2022-10-08T08:56:22.089Z,100
2022-10-08T09:10:55.439Z,100
2022-10-08T09:25:29.532Z,100
2022-10-08T09:40:07.702Z,100
2022-10-08T09:54:39.137Z,100
2022-10-08T10:09:10.724Z,99.4
2022-10-08T10:23:43.456Z,94.8
2022-10-08T10:38:17.651Z,89.8
2022-10-08T10:52:52.954Z,85.2
2022-10-08T11:07:24.559Z,79.8
2022-10-08T11:21:58.089Z,78.9
2022-10-08T11:36:33.353Z,79.8
2022-10-08T11:51:05.423Z,78.6
2022-10-08T12:05:41.044Z,73.6
2022-10-08T12:20:15.283Z,67.9
2022-10-08T12:34:47.908Z,64.4
2022-10-08T12:49:20.564Z,63.3
2022-10-08T13:03:52.930Z,63.2
2022-10-08T13:18:34.073Z,65.3
2022-10-08T13:33:03.507Z,61.9
2022-10-08T13:47:38.393Z,59.1
2022-10-08T14:02:12.356Z,56
2022-10-08T14:16:44.753Z,57.1
2022-10-08T14:31:15.324Z,54.7
2022-10-08T14:45:46.398Z,57.2
2022-10-08T15:00:19.284Z,56.8
2022-10-08T15:14:49.554Z,56.6
2022-10-08T15:29:22.853Z,58.5
2022-10-08T15:43:54.380Z,58.8
2022-10-08T15:58:51.099Z,58.3
2022-10-08T16:13:11.322Z,59
2022-10-08T16:27:43.688Z,59.8
2022-10-08T16:42:15.792Z,60.8
2022-10-08T16:56:45.932Z,63.8
2022-10-08T17:11:17.649Z,66.1
2022-10-08T17:25:50.496Z,67.8
2022-10-08T17:40:21.620Z,70.6
2022-10-08T17:54:53.519Z,73
2022-10-08T18:09:22.890Z,74.2
2022-10-08T18:23:54.365Z,75.3
2022-10-08T18:38:27.594Z,79.7
2022-10-08T18:53:00.494Z,82.7
2022-10-08T19:07:32.173Z,87
2022-10-08T19:22:04.598Z,86.4
2022-10-08T19:36:37.020Z,87.8
2022-10-08T19:51:08.260Z,91.5
2022-10-08T20:05:39.059Z,92.4
2022-10-08T20:20:33.507Z,89
2022-10-08T20:34:54.148Z,94.9
2022-10-08T20:49:26.295Z,90.3
2022-10-08T21:03:58.368Z,93.9
2022-10-08T21:18:29.568Z,97.3
2022-10-08T21:33:02.776Z,97.8
2022-10-08T21:47:35.696Z,93.4
2022-10-08T22:02:08.407Z,91.7
2022-10-08T22:16:41.216Z,91.7
2022-10-08T22:31:13.245Z,93.6
2022-10-08T22:45:44.570Z,95.6
2022-10-08T23:00:16.602Z,94.2
2022-10-08T23:14:48.932Z,95.2
2022-10-08T23:29:21.064Z,95.1
2022-10-08T23:43:53.353Z,92.7
2022-10-08T23:58:24.027Z,99.3
